createdAt,value
2018-02-20T00:01:56.672Z,44.33
2018-02-20T00:04:23.787Z,44.35
2018-02-20T00:06:50.156Z,43.13
2018-02-20T00:09:17.191Z,43.80
2018-02-20T00:11:43.459Z,45.95
2018-02-20T00:14:09.785Z,43.90
2018-02-20T00:16:36.138Z,40.58
2018-02-20T00:19:02.484Z,41.33
2018-02-20T00:21:28.796Z,46.58
2018-02-20T00:23:55.176Z,44.88
2018-02-20T00:26:22.209Z,39.70
2018-02-20T00:28:48.589Z,41.72
2018-02-20T00:31:14.839Z,34.70
2018-02-20T00:33:41.168Z,46.15
2018-02-20T00:36:07.504Z,48.45
2018-02-20T00:38:33.864Z,43.67
2018-02-20T00:41:00.195Z,42.27
2018-02-20T00:43:26.568Z,41.80
2018-02-20T00:45:52.871Z,41.00
2018-02-20T00:48:19.951Z,39.75
2018-02-20T00:50:46.284Z,42.80
2018-02-20T00:53:12.648Z,39.00
2018-02-20T00:55:38.980Z,47.50
2018-02-20T00:58:06.048Z,43.78
2018-02-20T01:00:32.388Z,46.58
2018-02-20T01:02:58.752Z,39.90
2018-02-20T01:05:25.261Z,43.92
2018-02-20T01:07:52.355Z,43.05
2018-02-20T01:10:18.667Z,41.60
2018-02-20T01:12:45.039Z,39.92
2018-02-20T01:15:11.365Z,42.28
2018-02-20T01:17:37.640Z,38.28
2018-02-20T01:20:04.686Z,44.40
2018-02-20T01:22:31.750Z,45.03
2018-02-20T01:24:58.076Z,39.38
2018-02-20T01:27:24.360Z,45.45
2018-02-20T01:29:50.668Z,44.08
2018-02-20T01:32:17.037Z,45.92
2018-02-20T01:34:43.376Z,47.78
2018-02-20T01:37:10.575Z,42.65
2018-02-20T01:39:36.912Z,46.65
2018-02-20T01:42:03.212Z,37.92
2018-02-20T01:44:29.580Z,41.65
2018-02-20T01:46:56.635Z,42.58
2018-02-20T01:49:23.717Z,41.15
2018-02-20T01:51:50.760Z,37.50
2018-02-20T01:54:17.840Z,46.42
2018-02-20T01:56:44.099Z,50.50
2018-02-20T01:59:10.419Z,48.22
2018-02-20T02:01:36.673Z,44.75
2018-02-20T02:04:02.992Z,49.42
2018-02-20T02:06:29.341Z,44.60
2018-02-20T02:08:56.761Z,44.33
2018-02-20T02:11:23.044Z,46.45
2018-02-20T02:13:49.398Z,43.15
2018-02-20T02:16:15.640Z,47.92
2018-02-20T02:18:42.000Z,44.88
2018-02-20T02:21:08.315Z,44.13
2018-02-20T02:23:34.686Z,49.67
2018-02-20T02:26:01.039Z,43.13
2018-02-20T02:28:28.112Z,41.90
2018-02-20T02:30:54.422Z,40.20
2018-02-20T02:33:21.496Z,42.50
2018-02-20T02:35:47.820Z,42.62
2018-02-20T02:38:14.177Z,44.15
2018-02-20T02:40:40.531Z,42.50
2018-02-20T02:43:06.875Z,40.78
2018-02-20T02:45:33.246Z,48.45
2018-02-20T02:48:00.306Z,43.25
2018-02-20T02:50:26.595Z,46.67
2018-02-20T02:52:53.725Z,45.55
2018-02-20T02:55:20.037Z,45.20
2018-02-20T02:57:46.369Z,53.25
2018-02-20T03:00:12.793Z,49.45
2018-02-20T03:02:39.173Z,47.05
2018-02-20T03:05:06.204Z,51.05
2018-02-20T03:07:32.576Z,44.60
2018-02-20T03:09:58.895Z,40.15
2018-02-20T03:12:25.167Z,45.42
2018-02-20T03:14:51.494Z,44.10
2018-02-20T03:17:17.851Z,36.83
2018-02-20T03:19:44.173Z,39.63
2018-02-20T03:22:10.525Z,40.00
2018-02-20T03:24:37.568Z,45.12
2018-02-20T03:27:03.832Z,42.92
2018-02-20T03:29:30.169Z,39.92
2018-02-20T03:31:56.548Z,45.95
2018-02-20T03:34:22.862Z,45.47
2018-02-20T03:36:49.148Z,43.15
2018-02-20T03:39:15.460Z,37.88
2018-02-20T03:41:42.531Z,36.42
2018-02-20T03:44:09.081Z,41.53
2018-02-20T03:46:35.399Z,38.42
2018-02-20T03:49:01.760Z,41.13
2018-02-20T03:51:28.808Z,41.03
2018-02-20T03:53:55.420Z,40.90
2018-02-20T03:56:21.700Z,39.50
2018-02-20T03:58:47.967Z,41.75
2018-02-20T04:01:14.284Z,40.12
2018-02-20T04:03:41.377Z,39.40
2018-02-20T04:06:07.700Z,43.17
2018-02-20T04:08:33.959Z,40.63
2018-02-20T04:11:00.280Z,45.45
2018-02-20T04:13:26.665Z,46.72
2018-02-20T04:15:52.977Z,44.25
2018-02-20T04:18:20.047Z,45.75
2018-02-20T04:20:47.113Z,42.17
2018-02-20T04:23:13.464Z,39.53
2018-02-20T04:25:39.709Z,33.08
2018-02-20T04:28:06.043Z,41.88
2018-02-20T04:30:32.370Z,45.70
2018-02-20T04:32:58.735Z,46.90
2018-02-20T04:35:25.778Z,44.13
2018-02-20T04:37:52.865Z,44.45
2018-02-20T04:40:19.191Z,47.65
2018-02-20T04:42:45.540Z,46.37
2018-02-20T04:45:11.868Z,40.63
2018-02-20T04:47:38.260Z,52.92
2018-02-20T04:50:04.566Z,51.70
2018-02-20T04:52:30.948Z,40.38
2018-02-20T04:54:57.257Z,45.92
2018-02-20T04:57:23.528Z,46.85
2018-02-20T04:59:50.818Z,54.85
2018-02-20T05:02:17.908Z,44.25
2018-02-20T05:04:44.397Z,48.65
2018-02-20T05:07:11.409Z,56.63
2018-02-20T05:09:37.675Z,44.45
2018-02-20T05:12:05.300Z,45.75
2018-02-20T05:14:31.591Z,44.65
2018-02-20T05:16:57.968Z,48.15
2018-02-20T05:19:24.472Z,48.25
2018-02-20T05:21:50.859Z,46.78
2018-02-20T05:24:17.916Z,47.30
2018-02-20T05:26:44.971Z,52.13
2018-02-20T05:29:11.484Z,47.45
2018-02-20T05:31:37.872Z,48.50
2018-02-20T05:34:04.209Z,46.42
2018-02-20T05:36:30.583Z,51.47
2018-02-20T05:38:56.944Z,46.50
2018-02-20T05:41:23.256Z,53.00
2018-02-20T05:43:51.339Z,43.28
2018-02-20T05:46:18.342Z,53.15
2018-02-20T05:48:44.659Z,53.17
2018-02-20T05:51:10.948Z,44.10
2018-02-20T07:15:33.474Z,42.03
2018-02-20T07:17:59.720Z,48.70
2018-02-20T07:20:26.770Z,56.50
2018-02-20T07:22:53.088Z,53.90
2018-02-20T07:25:19.468Z,56.60
2018-02-20T07:27:45.775Z,50.00
2018-02-20T07:30:12.169Z,51.67
2018-02-20T07:32:38.464Z,52.20
2018-02-20T07:35:04.844Z,48.63
2018-02-20T07:37:31.182Z,67.40
2018-02-20T07:39:57.457Z,51.90
2018-02-20T07:42:23.748Z,61.45
2018-02-20T07:44:50.120Z,52.67
2018-02-20T07:47:16.467Z,54.50
2018-02-20T07:49:42.776Z,51.90
2018-02-20T07:52:09.049Z,50.85
2018-02-20T07:54:35.376Z,54.72
2018-02-20T07:57:01.757Z,54.85
2018-02-20T07:59:28.784Z,57.40
2018-02-20T08:01:55.150Z,60.70
2018-02-20T08:04:21.487Z,57.17
2018-02-20T08:06:47.789Z,61.37
2018-02-20T08:09:14.885Z,55.78
2018-02-20T08:11:41.241Z,56.25
2018-02-20T08:14:07.568Z,67.20
2018-02-20T08:16:33.932Z,65.20
2018-02-20T08:19:00.964Z,68.75
2018-02-20T08:21:27.349Z,64.93
2018-02-20T08:23:53.659Z,66.07
2018-02-20T08:26:20.028Z,58.58
2018-02-20T08:28:46.344Z,68.45
2018-02-20T08:31:12.724Z,55.42
2018-02-20T08:33:39.758Z,71.82
2018-02-20T08:36:06.136Z,59.40
2018-02-20T08:38:32.437Z,59.10
2018-02-20T08:40:59.485Z,58.58
2018-02-20T08:43:25.744Z,57.97
2018-02-20T08:45:52.105Z,60.58
2018-02-20T08:48:18.436Z,60.20
2018-02-20T08:50:44.836Z,54.20
2018-02-20T08:53:11.142Z,55.83
2018-02-20T08:55:38.228Z,61.53
2018-02-20T08:58:04.491Z,52.40
2018-02-20T09:00:30.800Z,53.53
2018-02-20T09:02:57.844Z,57.40
2018-02-20T09:05:24.201Z,68.10
2018-02-20T09:07:50.533Z,57.42
2018-02-20T09:10:16.900Z,49.08
2018-02-20T09:12:43.931Z,53.97
2018-02-20T09:15:11.000Z,55.17
2018-02-20T09:17:37.367Z,46.35
2018-02-20T09:20:03.692Z,46.00
2018-02-20T09:22:29.964Z,50.10
2018-02-20T09:24:56.269Z,50.93
2018-02-20T09:27:22.640Z,47.97
2018-02-20T09:29:49.677Z,49.33
2018-02-20T09:32:16.040Z,45.97
2018-02-20T09:34:42.373Z,46.27
2018-02-20T09:37:08.729Z,44.17
2018-02-20T09:39:34.992Z,40.77
2018-02-20T09:42:01.325Z,49.40
2018-02-20T09:44:27.644Z,50.07
2018-02-20T09:46:54.022Z,44.47
2018-02-20T09:49:20.341Z,46.03
2018-02-20T09:51:47.413Z,51.73
2018-02-20T09:54:13.740Z,53.10
2018-02-20T09:56:40.105Z,51.20
2018-02-20T09:59:06.443Z,46.43
2018-02-20T10:01:32.803Z,46.67
2018-02-20T10:03:59.850Z,45.00
2018-02-20T10:06:26.974Z,49.93
2018-02-20T10:08:53.231Z,47.60
2018-02-20T10:11:20.324Z,44.70
2018-02-20T10:13:46.649Z,48.77
2018-02-20T10:16:13.019Z,47.27
2018-02-20T10:18:39.345Z,48.37
2018-02-20T10:21:05.641Z,54.30
2018-02-20T10:23:31.927Z,48.90
2018-02-20T10:25:59.011Z,51.97
2018-02-20T10:28:25.348Z,47.47
2018-02-20T10:30:51.700Z,49.73
2018-02-20T10:33:18.032Z,39.17
2018-02-20T10:35:44.390Z,49.33
2018-02-20T10:38:10.722Z,48.97
2018-02-20T10:40:36.994Z,51.23
2018-02-20T10:43:03.304Z,57.03
2018-02-20T10:45:30.382Z,53.73
2018-02-20T10:47:56.745Z,47.83
2018-02-20T10:50:23.082Z,49.57
2018-02-20T10:52:49.412Z,55.40
2018-02-20T10:55:15.772Z,47.93
2018-02-20T10:57:42.804Z,54.27
2018-02-20T11:00:09.180Z,50.73
2018-02-20T11:02:35.508Z,52.17
2018-02-20T11:05:01.854Z,50.97
2018-02-20T11:07:28.188Z,54.50
2018-02-20T11:09:54.547Z,52.93
2018-02-20T11:12:20.867Z,55.07
2018-02-20T11:14:47.244Z,56.20
2018-02-20T11:17:14.272Z,51.07
2018-02-20T11:19:40.636Z,58.03
2018-02-20T11:22:06.960Z,56.00
2018-02-20T11:24:33.336Z,55.27
2018-02-20T11:26:59.584Z,57.83
2018-02-20T11:29:25.861Z,61.83
2018-02-20T11:31:52.175Z,54.33
2018-02-20T11:34:18.761Z,55.50
2018-02-20T11:36:45.056Z,51.43
2018-02-20T11:39:11.408Z,58.03
2018-02-20T11:41:37.733Z,53.80
2018-02-20T11:44:04.089Z,55.77
2018-02-20T11:46:30.420Z,57.63
2018-02-20T11:48:56.832Z,55.27
2018-02-20T11:51:23.108Z,63.13
2018-02-20T11:53:49.472Z,52.37
2018-02-20T11:56:15.792Z,52.20
2018-02-20T11:58:42.142Z,54.20
2018-02-20T12:01:08.424Z,54.47
2018-02-20T12:03:34.765Z,49.37
2018-02-20T12:06:01.793Z,54.10
2018-02-20T12:08:28.164Z,52.50
2018-02-20T12:10:54.489Z,54.70
2018-02-20T12:13:20.892Z,50.13
2018-02-20T12:15:47.168Z,53.97
2018-02-20T12:18:13.527Z,54.40
2018-02-20T12:20:39.863Z,54.90
2018-02-20T12:23:06.884Z,56.13
2018-02-20T12:25:33.173Z,50.23
2018-02-20T12:28:00.305Z,54.13
2018-02-20T12:30:26.581Z,60.33
2018-02-20T12:32:52.953Z,56.03
2018-02-20T12:35:19.264Z,58.67
2018-02-20T12:37:45.620Z,56.73
2018-02-20T12:40:12.116Z,60.40
2018-02-20T12:42:38.420Z,51.40
2018-02-20T12:45:05.452Z,59.80
2018-02-20T12:47:32.548Z,57.73
2018-02-20T12:49:58.860Z,53.90
2018-02-20T12:52:25.272Z,65.53
2018-02-20T12:54:52.272Z,58.10
2018-02-20T12:57:18.648Z,61.07
2018-02-20T12:59:45.686Z,56.47
2018-02-20T13:02:12.047Z,56.00
2018-02-20T13:04:38.363Z,52.93
2018-02-20T13:07:05.468Z,66.27
2018-02-20T13:09:31.809Z,55.80
2018-02-20T13:11:58.144Z,54.33
2018-02-20T13:14:24.464Z,54.50
2018-02-20T13:16:50.854Z,51.63
2018-02-20T13:19:17.169Z,54.80
2018-02-20T13:21:44.272Z,56.33
2018-02-20T13:24:10.565Z,56.20
2018-02-20T13:26:36.821Z,52.17
2018-02-20T13:29:03.180Z,59.77
2018-02-20T13:31:30.218Z,57.07
2018-02-20T13:33:56.575Z,62.13
2018-02-20T13:36:22.920Z,53.93
2018-02-20T13:38:49.172Z,52.40
2018-02-20T13:41:15.512Z,54.97
2018-02-20T13:43:41.845Z,60.73
2018-02-20T13:46:08.287Z,61.43
2018-02-20T13:48:35.279Z,56.97
2018-02-20T13:51:02.359Z,54.40
2018-02-20T13:53:28.653Z,53.90
2018-02-20T13:55:55.983Z,57.37
2018-02-20T13:58:22.269Z,56.43
2018-02-20T14:00:48.540Z,53.20
2018-02-20T14:03:14.861Z,56.93
2018-02-20T14:05:41.944Z,50.90
2018-02-20T14:08:11.031Z,55.93
2018-02-20T14:10:37.293Z,55.27
2018-02-20T14:13:03.674Z,56.93
2018-02-20T14:15:29.988Z,59.17
2018-02-20T14:17:56.300Z,53.30
2018-02-20T14:20:22.677Z,64.77
2018-02-20T14:22:49.025Z,86.27
2018-02-20T14:25:16.059Z,69.23
2018-02-20T14:27:42.428Z,54.50
2018-02-20T14:30:08.728Z,51.90
2018-02-20T14:32:35.836Z,61.23
2018-02-20T14:35:02.165Z,56.20
2018-02-20T14:37:28.513Z,61.37
2018-02-20T14:39:54.852Z,61.37
2018-02-20T14:42:21.212Z,53.80
2018-02-20T14:44:48.248Z,57.40
2018-02-20T14:47:14.626Z,54.17
2018-02-20T14:49:40.935Z,56.20
2018-02-20T14:52:07.205Z,63.40
2018-02-20T14:54:34.344Z,61.67
2018-02-20T14:57:00.699Z,58.57
2018-02-20T14:59:27.385Z,52.77
2018-02-20T15:01:53.748Z,62.30
2018-02-20T15:04:20.128Z,58.50
2018-02-20T15:06:47.203Z,57.67
2018-02-20T15:09:13.541Z,64.00
2018-02-20T15:11:39.829Z,57.67
2018-02-20T15:14:07.213Z,62.90
2018-02-20T15:16:33.530Z,56.67
2018-02-20T15:19:00.600Z,64.03
2018-02-20T15:21:27.025Z,60.20
2018-02-20T15:23:53.465Z,60.23
2018-02-20T15:26:19.899Z,57.47
2018-02-20T15:28:46.317Z,61.50
2018-02-20T15:31:12.656Z,61.37
2018-02-20T15:33:38.964Z,61.30
2018-02-20T15:36:05.978Z,61.17
2018-02-20T15:38:32.836Z,57.67
2018-02-20T15:40:59.308Z,67.57
2018-02-20T15:43:26.640Z,58.97
2018-02-20T15:45:53.811Z,58.33
2018-02-20T15:48:20.125Z,55.60
2018-02-20T15:50:47.200Z,57.33
2018-02-20T15:53:13.488Z,65.07
2018-02-20T15:55:39.956Z,59.73
2018-02-20T15:58:06.256Z,62.00
2018-02-20T16:00:33.332Z,56.33
2018-02-20T16:02:59.636Z,61.30
2018-02-20T16:05:26.707Z,56.60
2018-02-20T16:07:53.012Z,65.77
2018-02-20T16:10:20.175Z,56.40
2018-02-20T16:12:47.316Z,65.53
2018-02-20T16:15:14.395Z,61.80
2018-02-20T16:17:40.830Z,67.20
2018-02-20T16:20:07.227Z,66.23
2018-02-20T16:22:34.296Z,68.50
2018-02-20T16:25:00.620Z,75.33
2018-02-20T16:27:27.676Z,65.80
2018-02-20T16:29:53.990Z,71.00
2018-02-20T16:32:21.181Z,67.37
2018-02-20T16:34:47.568Z,73.03
2018-02-20T16:37:14.777Z,64.93
2018-02-20T16:39:41.289Z,64.37
2018-02-20T16:42:07.591Z,69.57
2018-02-20T16:44:34.669Z,69.40
2018-02-20T16:47:00.980Z,76.67
2018-02-20T16:49:27.414Z,80.87
2018-02-20T16:51:53.684Z,65.60
2018-02-20T16:54:20.390Z,67.50
2018-02-20T16:56:46.782Z,72.87
2018-02-20T16:59:13.132Z,68.63
2018-02-20T17:01:40.194Z,65.57
2018-02-20T17:04:06.507Z,73.33
2018-02-20T17:06:33.700Z,63.53
2018-02-20T17:09:00.077Z,60.30
2018-02-20T17:11:26.375Z,73.27
2018-02-20T17:13:52.626Z,78.07
2018-02-20T17:16:18.996Z,94.87
2018-02-20T17:18:46.001Z,87.67
2018-02-20T17:21:12.371Z,87.90
2018-02-20T17:23:39.416Z,92.07
2018-02-20T17:26:06.421Z,94.27
2018-02-20T17:28:32.773Z,80.20
2018-02-20T17:30:59.139Z,82.97
2018-02-20T17:33:25.592Z,75.63
2018-02-20T17:35:52.033Z,89.40
2018-02-20T17:38:18.392Z,79.70
2018-02-20T17:40:44.872Z,88.17
2018-02-20T17:43:11.584Z,90.20
2018-02-20T17:45:38.656Z,78.20
2018-02-20T17:48:04.917Z,79.70
2018-02-20T17:50:32.021Z,82.60
2018-02-20T17:52:59.032Z,67.10
2018-02-20T17:55:25.406Z,73.00
2018-02-20T17:57:51.700Z,73.17
2018-02-20T18:00:18.172Z,69.03
2018-02-20T18:02:44.640Z,72.50
2018-02-20T18:05:11.048Z,64.83
2018-02-20T18:07:37.300Z,71.43
2018-02-20T18:10:03.688Z,69.10
2018-02-20T18:12:30.751Z,72.40
2018-02-20T18:14:57.040Z,78.60
2018-02-20T18:17:25.272Z,76.60
2018-02-20T18:19:51.595Z,71.90
2018-02-20T18:22:17.964Z,70.80
2018-02-20T18:24:44.322Z,68.80
2018-02-20T18:27:10.716Z,72.72
2018-02-20T18:29:37.975Z,75.40
2018-02-20T18:32:05.134Z,72.67
2018-02-20T18:34:31.607Z,79.40
2018-02-20T18:36:58.534Z,85.23
2018-02-20T18:39:26.903Z,65.80
2018-02-20T18:41:54.951Z,74.57
2018-02-20T18:44:22.167Z,81.10
2018-02-20T18:46:49.162Z,75.90
2018-02-20T18:49:17.639Z,80.37
2018-02-20T18:51:45.540Z,84.47
2018-02-20T18:54:13.856Z,73.13
2018-02-20T18:56:40.874Z,83.50
2018-02-20T18:59:08.901Z,80.80
2018-02-20T19:01:35.877Z,86.10
2018-02-20T19:04:02.850Z,83.37
2018-02-20T19:06:30.084Z,74.83
2018-02-20T19:08:56.412Z,72.30
2018-02-20T19:11:22.785Z,88.30
2018-02-20T19:13:49.111Z,73.75
2018-02-20T19:16:16.572Z,82.07
2018-02-20T19:18:42.935Z,81.95
2018-02-20T19:21:09.288Z,76.73
2018-02-20T19:23:36.341Z,83.15
2018-02-20T19:26:02.702Z,74.90
2018-02-20T19:28:29.121Z,79.37
2018-02-20T19:30:55.485Z,81.63
2018-02-20T19:33:21.830Z,86.10
2018-02-20T19:35:48.172Z,81.87
2018-02-20T19:38:14.476Z,75.10
2018-02-20T19:40:40.852Z,90.35
2018-02-20T19:43:07.891Z,86.07
2018-02-20T19:45:34.984Z,87.62
2018-02-20T19:48:01.304Z,80.53
2018-02-20T19:50:27.677Z,80.12
2018-02-20T19:52:54.700Z,83.30
2018-02-20T19:55:21.092Z,82.75
2018-02-20T19:57:48.115Z,73.97
2018-02-20T20:00:14.484Z,76.80
2018-02-20T20:02:41.029Z,86.85
2018-02-20T20:05:07.373Z,78.55
2018-02-20T20:07:34.728Z,89.53
2018-02-20T20:10:01.128Z,90.47
2018-02-20T20:12:27.449Z,87.20
2018-02-20T20:14:53.831Z,90.65
2018-02-20T20:17:20.137Z,94.05
2018-02-20T20:19:46.477Z,90.65
2018-02-20T20:22:12.868Z,80.03
2018-02-20T20:24:40.240Z,85.05
2018-02-20T20:27:06.556Z,75.22
2018-02-20T20:29:33.571Z,91.87
2018-02-20T20:31:59.856Z,91.65
2018-02-20T20:34:26.100Z,86.20
2018-02-20T20:36:52.380Z,88.75
2018-02-20T20:39:18.863Z,70.43
2018-02-20T20:41:45.135Z,77.20
2018-02-20T20:44:11.753Z,93.72
2018-02-20T20:46:38.040Z,74.93
2018-02-20T20:49:04.322Z,85.18
2018-02-20T20:51:32.299Z,82.35
2018-02-20T20:53:58.713Z,86.03
2018-02-20T20:56:24.988Z,74.75
2018-02-20T20:58:52.260Z,82.22
2018-02-20T21:01:18.601Z,70.95
2018-02-20T21:03:45.109Z,71.57
2018-02-20T21:06:11.540Z,74.68
2018-02-20T21:08:38.584Z,70.37
2018-02-20T21:11:05.600Z,73.20
2018-02-20T21:13:32.085Z,72.05
2018-02-20T21:15:58.649Z,72.72
2018-02-20T21:18:24.913Z,85.12
2018-02-20T21:20:51.389Z,67.82
2018-02-20T21:23:17.642Z,61.53
2018-02-20T21:25:43.893Z,65.62
2018-02-20T21:28:11.078Z,67.03
2018-02-20T21:30:37.328Z,75.60
2018-02-20T21:33:03.599Z,77.95
2018-02-20T21:35:30.088Z,65.75
2018-02-20T21:37:56.345Z,58.05
2018-02-20T21:40:22.607Z,59.15
2018-02-20T21:42:49.384Z,57.90
2018-02-20T21:45:15.699Z,62.53
2018-02-20T21:47:42.021Z,63.92
2018-02-20T21:50:09.301Z,67.15
2018-02-20T21:52:35.751Z,55.65
2018-02-20T21:55:02.110Z,68.25
2018-02-20T21:57:28.691Z,60.08
2018-02-20T21:59:54.999Z,57.97
2018-02-20T22:02:21.326Z,49.40
2018-02-20T22:04:48.608Z,59.70
2018-02-20T22:07:14.857Z,54.65
2018-02-20T22:09:41.188Z,62.08
2018-02-20T22:12:07.712Z,66.57
2018-02-20T22:14:33.981Z,56.13
2018-02-20T22:17:00.476Z,57.15
2018-02-20T22:19:26.723Z,59.17
2018-02-20T22:21:52.989Z,59.38
2018-02-20T22:24:19.461Z,54.47
2018-02-20T22:26:45.711Z,54.45
2018-02-20T22:29:11.968Z,57.28
2018-02-20T22:31:38.458Z,63.30
2018-02-20T22:34:04.723Z,65.72
2018-02-20T22:36:30.992Z,61.83
2018-02-20T22:38:58.172Z,60.20
2018-02-20T22:41:24.548Z,61.72
2018-02-20T22:43:52.317Z,60.83
2018-02-20T22:46:18.919Z,58.67
2018-02-20T22:48:45.376Z,60.95
2018-02-20T22:51:11.727Z,61.83
2018-02-20T22:53:38.403Z,54.78
2018-02-20T22:56:04.823Z,55.15
2018-02-20T22:58:31.207Z,53.55
2018-02-20T23:00:57.510Z,52.95
2018-02-20T23:03:23.865Z,53.83
2018-02-20T23:05:50.232Z,56.30
2018-02-20T23:08:17.297Z,53.33
2018-02-20T23:10:43.655Z,57.25
2018-02-20T23:13:09.921Z,47.50
2018-02-20T23:15:36.208Z,55.28
2018-02-20T23:18:02.548Z,53.78
2018-02-20T23:20:28.896Z,47.28
2018-02-20T23:22:55.228Z,46.47
2018-02-20T23:25:21.593Z,46.50
2018-02-20T23:27:48.637Z,50.53
2018-02-20T23:30:15.660Z,55.00
2018-02-20T23:32:41.936Z,52.15
2018-02-20T23:35:08.307Z,45.67
2018-02-20T23:37:34.650Z,48.92
2018-02-20T23:40:14.150Z,48.75
2018-02-20T23:42:40.441Z,46.55
2018-02-20T23:45:06.800Z,45.17
2018-02-20T23:47:33.164Z,49.45
2018-02-20T23:49:59.480Z,45.72
2018-02-20T23:52:25.849Z,46.35
2018-02-20T23:54:52.184Z,43.97
2018-02-20T23:57:18.499Z,43.53
2018-02-20T23:59:45.823Z,50.35
